Vliegveldwaarnemingen Nederland - (AUTO) METAR

Luchtvaartmeteorologische informatie voor operationeel gebruik en vluchtvoorbereiding is beschikbaar op www.luchtvaartmeteo.nl.

ZCZC
SA210325 EHFS     VLISSINGEN AWS   NLD   8 m.
METAR EHFS 210325Z AUTO 06009KT 9999 NCD 01/M05 Q1030=

ZCZC
SA210355 EHKD     DE KOOY/DE KOOY   NLD   1 m.
METAR EHKD 210355Z AUTO 08006KT 050V110 7000 BR OVC014 03/01 Q1032 GRN=

ZCZC
SA210355 EHFD     F3-FB-1   NLD   50 m.
METAR EHFD 210355Z AUTO VRB02KT 9999 OVC013/// 06/03 Q1032=

ZCZC
SA210355 EHAM     AMSTERDAM/SCHIPHOL   NLD   -3 m.
METAR EHAM 210355Z 06004KT 7000 FEW014 M01/M01 Q1032 NOSIG=

ZCZC
SA210355 EHVL     VLIELAND   NLD   10 m.
METAR EHVL 210355Z AUTO 09005KT 4100 BR BKN012 OVC015 03/03 Q1033 GRN=

ZCZC
SA210355 EHJR     K13-A   NLD   37 m.
METAR EHJR 210355Z NIL=

ZCZC
SA210355 EHLW     LEEUWARDEN/LEEUWARDEN   NLD   1 m.
METAR EHLW 210355Z AUTO 10003KT 030V120 4300 BR OVC011 03/02 Q1033 GRN=

ZCZC
SA210355 EHDL     ARNHEM/DEELEN   NLD   48 m.
METAR EHDL 210355Z AUTO 09005KT 010V180 9999 FEW110 00/M01 Q1032 BLU=

ZCZC
SA210355 EHGG     GRONINGEN/EELDE   NLD   5 m.
METAR EHGG 210355Z AUTO VRB01KT 0700 R23/1000D FG FEW000 OVC012 01/01
Q1033=

ZCZC
SA210355 EHSC     LICHTEILAND GOEREE   NLD   22 m.
METAR EHSC 210355Z NIL=

ZCZC
SA210355 EHSA     EURO PLATFORM   NLD   19 m.
METAR EHSA 210355Z NIL=

ZCZC
SA210355 EHWO     WOENSDRECHT/WOENSDRECHT   NLD   19 m.
METAR EHWO 210355Z AUTO 06010KT 040V100 9999 NCD M01/M06 Q1030 BLU=

ZCZC
SA210355 EHRD     ROTTERDAM/THE HAGUE AIRPORT   NLD   -5 m.
METAR EHRD 210355Z AUTO 05003KT 4700 BR NSC M03/M03 Q1032 NOSIG=

ZCZC
SA210355 EHGR     GILZE-RIJEN/GILZE-RIJEN   NLD   14 m.
METAR EHGR 210355Z AUTO 06005KT 010V090 9999 OVC340 M02/M04 Q1031 BLU=

ZCZC
SA210355 EHEH     EINDHOVEN/EINDHOVEN   NLD   22 m.
METAR EHEH 210355Z AUTO 06004KT 9999 FEW110 M03/M06 Q1031 BLU=

ZCZC
SA210355 EHVK     VOLKEL/VOLKEL   NLD   21 m.
METAR EHVK 210355Z AUTO 06006KT 9000 BR NCD M02/M04 Q1031 BLU=

ZCZC
SA210355 EHBK     MAASTRICHT/MAASTRICHT-AACHEN   NLD   114 m.
METAR EHBK 210355Z AUTO 05007KT 9999 NSC M04/M06 Q1030=

ZCZC
SA210355 EHFZ     F16-A   NLD   43 m.
METAR EHFZ 210355Z AUTO 11007KT 9999 OVC012 06/03 Q1032=

ZCZC
SA210355 EHKV     K14-FA-1C   NLD   41 m.
METAR EHKV 210355Z AUTO 08008KT 9999 FEW004 SCT011 BKN013 06/03
Q1032=

ZCZC
SA210355 EHMG     L9-FF-1   NLD   44 m.
METAR EHMG 210355Z AUTO 10006KT 070V140 9999 SCT010 OVC012 06/03
Q1032=

ZCZC
SA210355 EHMA     AWG-1   NLD   40 m.
METAR EHMA 210355Z AUTO 10007KT 040V140 //// // OVC010 05/03 Q1033
RE//=

ZCZC
SA210355 EHDV     D15-FA-1   NLD   42 m.
METAR EHDV 210355Z AUTO 08005KT 050V110 9999 OVC013/// 06/03 Q1032=

ZCZC
SA210355 EHAK     A12-CPP   NLD   48 m.
METAR EHAK 210355Z AUTO VRB03KT 9999 OVC014/// 06/02 Q1033=

ZCZC
SA210355 EHQE     HOORN-A   NLD   50 m.
METAR EHQE 210355Z AUTO ///13KT 8000 FEW003 SCT006 BKN010 04/03
Q1032=

ZCZC
SA210355 EHJA     J6-A   NLD   45 m.
METAR EHJA 210355Z AUTO 08010KT 360V160 9999 OVC013/// 06/03 Q1032=

ZCZC
SA210355 EHPG     P11-B   NLD   41 m.
METAR EHPG 210355Z AUTO 06019KT 9999 SCT009 BKN010 05/02 Q1031=

ZCZC
SA210355 EHHW     BUITENGAATS/BG-OHVS2      42 m.
METAR EHHW 210355Z AUTO 12005KT 040V150 9999 BKN011/// OVC013///
06/03 Q1032=

21/01/2017 05.00 uur LT